Terminal Aerodrome Forecast
Issued by NWS Wilmington, OH

Home | Current Version | Previous Version | Graphics & Text | Print | Product List | Glossary Off
Versions: 1 2 3 4 5 6 7 8 9 10 11 12 13 14 15 16 17 18 19 20

000
FTUS41 KILN 231200 AAB
TAFCMH
TAF AMD
KCMH 231215Z 2312/2412 34005KT 2SM BR OVC003
      TEMPO 2312/2313 1SM BR
     FM231500 30005KT P6SM SCT250
     FM240400 VRB03KT P6SM BKN200=

USA.gov is the U.S. government's official web portal to all federal, state and local government web resources and services.